sensor_id;sensor_type;location;lat;lon;timestamp;pressure;altitude;pressure_sealevel;temperature;humidity
23241;BME280;11789;53.482;9.862;2022-08-19T00:01:37;101294.25;;;19.54;88.26
23241;BME280;11789;53.482;9.862;2022-08-19T00:04:07;101292.56;;;19.51;88.41
23241;BME280;11789;53.482;9.862;2022-08-19T00:06:35;101281.28;;;19.49;88.32
23241;BME280;11789;53.482;9.862;2022-08-19T00:09:05;101277.00;;;19.47;88.37
23241;BME280;11789;53.482;9.862;2022-08-19T00:11:31;101264.03;;;19.42;88.32
23241;BME280;11789;53.482;9.862;2022-08-19T00:13:59;101267.59;;;19.39;88.75
23241;BME280;11789;53.482;9.862;2022-08-19T00:16:26;101268.56;;;19.35;88.96
23241;BME280;11789;53.482;9.862;2022-08-19T00:18:51;101273.06;;;19.32;89.04
23241;BME280;11789;53.482;9.862;2022-08-19T00:21:17;101279.06;;;19.35;89.04
23241;BME280;11789;53.482;9.862;2022-08-19T00:23:43;101286.06;;;19.36;89.27
23241;BME280;11789;53.482;9.862;2022-08-19T00:26:09;101287.84;;;19.34;89.43
23241;BME280;11789;53.482;9.862;2022-08-19T00:28:35;101289.66;;;19.32;89.63
23241;BME280;11789;53.482;9.862;2022-08-19T00:31:05;101293.12;;;19.33;89.68
23241;BME280;11789;53.482;9.862;2022-08-19T00:33:36;101285.31;;;19.31;89.99
23241;BME280;11789;53.482;9.862;2022-08-19T00:36:05;101287.94;;;19.31;90.00
23241;BME280;11789;53.482;9.862;2022-08-19T00:38:33;101283.59;;;19.30;90.31
23241;BME280;11789;53.482;9.862;2022-08-19T00:40:58;101282.88;;;19.25;90.56
23241;BME280;11789;53.482;9.862;2022-08-19T00:43:26;101277.69;;;19.24;90.77
23241;BME280;11789;53.482;9.862;2022-08-19T00:45:52;101267.13;;;19.25;90.78
23241;BME280;11789;53.482;9.862;2022-08-19T00:48:18;101268.88;;;19.26;90.73
23241;BME280;11789;53.482;9.862;2022-08-19T00:50:45;101265.28;;;19.29;90.69
23241;BME280;11789;53.482;9.862;2022-08-19T00:53:14;101263.63;;;19.26;90.80
23241;BME280;11789;53.482;9.862;2022-08-19T00:55:42;101264.44;;;19.28;91.02
23241;BME280;11789;53.482;9.862;2022-08-19T00:58:14;101258.41;;;19.26;91.18
23241;BME280;11789;53.482;9.862;2022-08-19T01:00:40;101260.19;;;19.24;91.26
23241;BME280;11789;53.482;9.862;2022-08-19T01:03:08;101258.62;;;19.18;91.53
23241;BME280;11789;53.482;9.862;2022-08-19T01:05:35;101256.97;;;19.16;91.57
23241;BME280;11789;53.482;9.862;2022-08-19T01:08:03;101272.84;;;19.10;91.95
23241;BME280;11789;53.482;9.862;2022-08-19T01:10:33;101265.88;;;19.09;92.35
23241;BME280;11789;53.482;9.862;2022-08-19T01:13:07;101268.50;;;19.09;92.54
23241;BME280;11789;53.482;9.862;2022-08-19T01:15:44;101257.94;;;19.12;92.47
23241;BME280;11789;53.482;9.862;2022-08-19T01:18:13;101257.03;;;19.13;92.48
23241;BME280;11789;53.482;9.862;2022-08-19T01:20:41;101250.09;;;19.12;92.68
23241;BME280;11789;53.482;9.862;2022-08-19T01:23:07;101253.56;;;19.12;92.55
23241;BME280;11789;53.482;9.862;2022-08-19T01:25:39;101255.34;;;19.10;92.58
23241;BME280;11789;53.482;9.862;2022-08-19T01:28:06;101251.94;;;19.08;92.88
23241;BME280;11789;53.482;9.862;2022-08-19T01:30:35;101250.22;;;19.07;92.94
23241;BME280;11789;53.482;9.862;2022-08-19T01:33:01;101255.41;;;19.09;93.09
23241;BME280;11789;53.482;9.862;2022-08-19T01:35:28;101247.47;;;19.12;93.14
23241;BME280;11789;53.482;9.862;2022-08-19T01:38:06;101242.09;;;19.15;92.76
23241;BME280;11789;53.482;9.862;2022-08-19T01:40:35;101243.87;;;19.14;92.72
23241;BME280;11789;53.482;9.862;2022-08-19T01:43:02;101237.84;;;19.11;92.76
23241;BME280;11789;53.482;9.862;2022-08-19T01:45:29;101243.06;;;19.12;92.91
23241;BME280;11789;53.482;9.862;2022-08-19T01:47:56;101244.72;;;19.15;92.92
23241;BME280;11789;53.482;9.862;2022-08-19T01:50:23;101236.00;;;19.14;92.89
23241;BME280;11789;53.482;9.862;2022-08-19T01:52:49;101230.78;;;19.14;92.90
23241;BME280;11789;53.482;9.862;2022-08-19T01:55:18;101235.22;;;19.12;93.02
23241;BME280;11789;53.482;9.862;2022-08-19T01:57:48;101236.97;;;19.12;93.04
23241;BME280;11789;53.482;9.862;2022-08-19T02:00:17;101237.84;;;19.11;92.90
23241;BME280;11789;53.482;9.862;2022-08-19T02:02:44;101237.00;;;19.10;92.99
23241;BME280;11789;53.482;9.862;2022-08-19T02:05:10;101236.25;;;19.07;93.19
23241;BME280;11789;53.482;9.862;2022-08-19T02:07:36;101243.34;;;19.03;93.62
23241;BME280;11789;53.482;9.862;2022-08-19T02:10:09;101239.03;;;19.01;93.83
23241;BME280;11789;53.482;9.862;2022-08-19T02:12:35;101235.53;;;19.02;93.90
23241;BME280;11789;53.482;9.862;2022-08-19T02:15:00;101232.06;;;19.01;93.60
23241;BME280;11789;53.482;9.862;2022-08-19T02:17:27;101232.16;;;18.98;93.46
23241;BME280;11789;53.482;9.862;2022-08-19T02:19:55;101215.56;;;18.98;93.56
23241;BME280;11789;53.482;9.862;2022-08-19T02:22:21;101213.00;;;18.96;93.74
23241;BME280;11789;53.482;9.862;2022-08-19T02:24:46;101213.13;;;18.91;93.99
23241;BME280;11789;53.482;9.862;2022-08-19T02:27:13;101197.41;;;18.91;93.94
23241;BME280;11789;53.482;9.862;2022-08-19T02:29:39;101203.47;;;18.93;94.10
23241;BME280;11789;53.482;9.862;2022-08-19T02:32:07;101198.41;;;18.87;94.14
23241;BME280;11789;53.482;9.862;2022-08-19T02:34:33;101194.09;;;18.85;94.19
23241;BME280;11789;53.482;9.862;2022-08-19T02:36:58;101201.16;;;18.83;94.48
23241;BME280;11789;53.482;9.862;2022-08-19T02:39:24;101200.31;;;18.82;94.68
23241;BME280;11789;53.482;9.862;2022-08-19T02:41:49;101202.87;;;18.84;94.75
23241;BME280;11789;53.482;9.862;2022-08-19T02:44:15;101205.50;;;18.84;94.70
23241;BME280;11789;53.482;9.862;2022-08-19T02:46:41;101204.62;;;18.83;94.68
23241;BME280;11789;53.482;9.862;2022-08-19T02:49:08;101198.59;;;18.81;94.99
23241;BME280;11789;53.482;9.862;2022-08-19T02:51:39;101197.69;;;18.82;94.99
23241;BME280;11789;53.482;9.862;2022-08-19T02:54:06;101203.72;;;18.84;95.03
23241;BME280;11789;53.482;9.862;2022-08-19T02:56:35;101206.22;;;18.89;95.07
23241;BME280;11789;53.482;9.862;2022-08-19T02:59:00;101202.66;;;18.91;95.10
23241;BME280;11789;53.482;9.862;2022-08-19T03:01:30;101200.97;;;18.89;94.59
23241;BME280;11789;53.482;9.862;2022-08-19T03:03:58;101206.31;;;18.86;94.91
23241;BME280;11789;53.482;9.862;2022-08-19T03:06:25;101208.03;;;18.87;94.69
23241;BME280;11789;53.482;9.862;2022-08-19T03:08:51;101211.56;;;18.86;94.74
23241;BME280;11789;53.482;9.862;2022-08-19T03:11:29;101215.91;;;18.85;94.73
23241;BME280;11789;53.482;9.862;2022-08-19T03:14:05;101217.69;;;18.85;94.77
23241;BME280;11789;53.482;9.862;2022-08-19T03:16:35;101215.97;;;18.84;94.73
23241;BME280;11789;53.482;9.862;2022-08-19T03:19:06;101225.66;;;18.82;94.70
23241;BME280;11789;53.482;9.862;2022-08-19T03:21:33;101223.06;;;18.80;94.80
23241;BME280;11789;53.482;9.862;2022-08-19T03:24:02;101216.94;;;18.80;94.76
23241;BME280;11789;53.482;9.862;2022-08-19T03:26:28;101212.63;;;18.79;95.00
23241;BME280;11789;53.482;9.862;2022-08-19T03:28:54;101218.09;;;18.71;95.27
23241;BME280;11789;53.482;9.862;2022-08-19T03:31:21;101226.91;;;18.67;95.48
23241;BME280;11789;53.482;9.862;2022-08-19T03:33:51;101224.28;;;18.69;95.58
23241;BME280;11789;53.482;9.862;2022-08-19T03:36:19;101222.50;;;18.69;95.82
23241;BME280;11789;53.482;9.862;2022-08-19T03:38:51;101232.19;;;18.65;95.95
23241;BME280;11789;53.482;9.862;2022-08-19T03:41:21;101221.66;;;18.67;96.10
23241;BME280;11789;53.482;9.862;2022-08-19T03:43:47;101234.66;;;18.72;95.93
23241;BME280;11789;53.482;9.862;2022-08-19T03:46:16;101237.44;;;18.65;96.17
23241;BME280;11789;53.482;9.862;2022-08-19T03:48:45;101232.22;;;18.64;96.29
23241;BME280;11789;53.482;9.862;2022-08-19T03:51:19;101236.72;;;18.60;96.39
23241;BME280;11789;53.482;9.862;2022-08-19T03:53:45;101234.03;;;18.62;96.31
23241;BME280;11789;53.482;9.862;2022-08-19T03:56:10;101227.09;;;18.61;96.26
23241;BME280;11789;53.482;9.862;2022-08-19T03:58:37;101234.25;;;18.54;96.48
23241;BME280;11789;53.482;9.862;2022-08-19T04:01:11;101236.97;;;18.51;97.02
23241;BME280;11789;53.482;9.862;2022-08-19T04:03:39;101236.09;;;18.51;97.01
23241;BME280;11789;53.482;9.862;2022-08-19T04:06:13;101232.59;;;18.52;97.13
23241;BME280;11789;53.482;9.862;2022-08-19T04:08:41;101240.50;;;18.49;97.06
23241;BME280;11789;53.482;9.862;2022-08-19T04:11:09;101244.94;;;18.47;97.06
23241;BME280;11789;53.482;9.862;2022-08-19T04:13:35;101244.09;;;18.45;97.19
23241;BME280;11789;53.482;9.862;2022-08-19T04:16:00;101238.91;;;18.43;97.31
23241;BME280;11789;53.482;9.862;2022-08-19T04:18:26;101239.03;;;18.38;97.47
23241;BME280;11789;53.482;9.862;2022-08-19T04:20:55;101249.44;;;18.41;97.77
23241;BME280;11789;53.482;9.862;2022-08-19T04:23:20;101256.47;;;18.39;97.76
23241;BME280;11789;53.482;9.862;2022-08-19T04:25:46;101266.12;;;18.37;97.93
23241;BME280;11789;53.482;9.862;2022-08-19T04:28:12;101271.44;;;18.34;97.76
23241;BME280;11789;53.482;9.862;2022-08-19T04:30:45;101265.31;;;18.35;97.95
23241;BME280;11789;53.482;9.862;2022-08-19T04:33:13;101273.94;;;18.39;97.88
23241;BME280;11789;53.482;9.862;2022-08-19T04:35:41;101279.94;;;18.42;97.74
23241;BME280;11789;53.482;9.862;2022-08-19T04:38:08;101280.19;;;18.33;97.67
23241;BME280;11789;53.482;9.862;2022-08-19T04:40:34;101270.56;;;18.35;97.98
23241;BME280;11789;53.482;9.862;2022-08-19T04:43:23;101279.16;;;18.39;97.84
23241;BME280;11789;53.482;9.862;2022-08-19T04:45:48;101281.81;;;18.37;97.82
23241;BME280;11789;53.482;9.862;2022-08-19T04:48:13;101285.34;;;18.36;97.96
23241;BME280;11789;53.482;9.862;2022-08-19T04:50:40;101287.13;;;18.34;98.19
23241;BME280;11789;53.482;9.862;2022-08-19T04:53:07;101279.25;;;18.36;98.23
23241;BME280;11789;53.482;9.862;2022-08-19T04:55:32;101289.91;;;18.30;98.40
23241;BME280;11789;53.482;9.862;2022-08-19T04:57:59;101291.72;;;18.26;98.78
23241;BME280;11789;53.482;9.862;2022-08-19T05:00:31;101276.94;;;18.24;98.99
23241;BME280;11789;53.482;9.862;2022-08-19T05:02:56;101280.53;;;18.21;98.90
23241;BME280;11789;53.482;9.862;2022-08-19T05:05:22;101287.53;;;18.19;99.44
23241;BME280;11789;53.482;9.862;2022-08-19T05:07:47;101296.12;;;18.24;99.70
23241;BME280;11789;53.482;9.862;2022-08-19T05:10:13;101291.06;;;18.18;99.83
23241;BME280;11789;53.482;9.862;2022-08-19T05:12:38;101295.38;;;18.19;100.00
23241;BME280;11789;53.482;9.862;2022-08-19T05:15:05;101298.78;;;18.23;100.00
23241;BME280;11789;53.482;9.862;2022-08-19T05:17:31;101288.31;;;18.23;100.00
23241;BME280;11789;53.482;9.862;2022-08-19T05:19:57;101290.00;;;18.25;100.00
23241;BME280;11789;53.482;9.862;2022-08-19T05:22:42;101291.00;;;18.21;100.00
23241;BME280;11789;53.482;9.862;2022-08-19T05:25:13;101287.53;;;18.19;100.00
23241;BME280;11789;53.482;9.862;2022-08-19T05:27:41;101293.50;;;18.24;100.00
23241;BME280;11789;53.482;9.862;2022-08-19T05:30:08;101297.94;;;18.22;100.00
23241;BME280;11789;53.482;9.862;2022-08-19T05:32:34;101298.00;;;18.19;100.00
23241;BME280;11789;53.482;9.862;2022-08-19T05:35:00;101298.00;;;18.19;100.00
23241;BME280;11789;53.482;9.862;2022-08-19T05:37:26;101303.22;;;18.19;100.00
23241;BME280;11789;53.482;9.862;2022-08-19T05:39:53;101301.41;;;18.23;100.00
23241;BME280;11789;53.482;9.862;2022-08-19T05:42:20;101301.41;;;18.23;100.00
23241;BME280;11789;53.482;9.862;2022-08-19T05:44:47;101305.94;;;18.16;100.00
23241;BME280;11789;53.482;9.862;2022-08-19T05:47:14;101308.50;;;18.18;100.00
23241;BME280;11789;53.482;9.862;2022-08-19T05:49:41;101314.59;;;18.18;100.00
23241;BME280;11789;53.482;9.862;2022-08-19T05:52:09;101314.59;;;18.18;100.00
23241;BME280;11789;53.482;9.862;2022-08-19T05:54:40;101305.91;;;18.18;100.00
23241;BME280;11789;53.482;9.862;2022-08-19T05:57:07;101296.25;;;18.20;100.00
23241;BME280;11789;53.482;9.862;2022-08-19T05:59:33;101290.87;;;18.24;100.00
23241;BME280;11789;53.482;9.862;2022-08-19T06:02:01;101292.62;;;18.25;100.00
23241;BME280;11789;53.482;9.862;2022-08-19T06:04:27;101292.62;;;18.25;100.00
23241;BME280;11789;53.482;9.862;2022-08-19T06:06:53;101295.13;;;18.30;100.00
23241;BME280;11789;53.482;9.862;2022-08-19T06:09:20;101296.91;;;18.28;100.00
23241;BME280;11789;53.482;9.862;2022-08-19T06:11:54;101301.22;;;18.30;100.00
23241;BME280;11789;53.482;9.862;2022-08-19T06:14:48;101303.00;;;18.28;100.00
23241;BME280;11789;53.482;9.862;2022-08-19T06:17:15;101289.00;;;18.29;100.00
23241;BME280;11789;53.482;9.862;2022-08-19T06:19:41;101303.00;;;18.28;100.00
23241;BME280;11789;53.482;9.862;2022-08-19T06:22:08;101304.66;;;18.32;100.00
23241;BME280;11789;53.482;9.862;2022-08-19T06:24:34;101301.13;;;18.33;100.00
23241;BME280;11789;53.482;9.862;2022-08-19T06:27:02;101312.44;;;18.34;100.00
23241;BME280;11789;53.482;9.862;2022-08-19T06:29:28;101309.09;;;18.29;100.00
23241;BME280;11789;53.482;9.862;2022-08-19T06:31:57;101300.38;;;18.30;100.00
23241;BME280;11789;53.482;9.862;2022-08-19T06:34:24;101298.63;;;18.29;100.00
23241;BME280;11789;53.482;9.862;2022-08-19T06:36:51;101294.25;;;18.29;100.00
23241;BME280;11789;53.482;9.862;2022-08-19T06:39:20;101302.03;;;18.32;100.00
23241;BME280;11789;53.482;9.862;2022-08-19T06:41:49;101295.03;;;18.33;100.00
23241;BME280;11789;53.482;9.862;2022-08-19T06:44:17;101297.59;;;18.34;100.00
23241;BME280;11789;53.482;9.862;2022-08-19T06:46:43;101296.78;;;18.32;99.89
23241;BME280;11789;53.482;9.862;2022-08-19T06:49:09;101296.75;;;18.34;99.65
23241;BME280;11789;53.482;9.862;2022-08-19T06:51:40;101296.75;;;18.34;99.47
23241;BME280;11789;53.482;9.862;2022-08-19T06:54:05;101302.03;;;18.32;99.62
23241;BME280;11789;53.482;9.862;2022-08-19T06:56:31;101296.84;;;18.31;99.36
23241;BME280;11789;53.482;9.862;2022-08-19T06:59:10;101301.13;;;18.33;99.41
23241;BME280;11789;53.482;9.862;2022-08-19T07:01:38;101290.72;;;18.32;99.34
23241;BME280;11789;53.482;9.862;2022-08-19T07:04:08;101299.47;;;18.31;99.42
23241;BME280;11789;53.482;9.862;2022-08-19T07:06:35;101301.97;;;18.35;99.16
23241;BME280;11789;53.482;9.862;2022-08-19T07:09:01;101306.34;;;18.35;98.99
23241;BME280;11789;53.482;9.862;2022-08-19T07:11:27;101302.84;;;18.34;98.90
23241;BME280;11789;53.482;9.862;2022-08-19T07:13:53;101305.56;;;18.31;99.00
23241;BME280;11789;53.482;9.862;2022-08-19T07:16:19;101308.19;;;18.31;99.13
23241;BME280;11789;53.482;9.862;2022-08-19T07:18:49;101301.06;;;18.36;99.09
23241;BME280;11789;53.482;9.862;2022-08-19T07:21:19;101301.97;;;18.34;99.03
23241;BME280;11789;53.482;9.862;2022-08-19T07:23:45;101303.78;;;18.32;98.98
23241;BME280;11789;53.482;9.862;2022-08-19T07:26:17;101301.97;;;18.34;98.95
23241;BME280;11789;53.482;9.862;2022-08-19T07:28:45;101301.97;;;18.34;98.97
23241;BME280;11789;53.482;9.862;2022-08-19T07:31:39;101315.06;;;18.35;98.63
23241;BME280;11789;53.482;9.862;2022-08-19T07:34:07;101318.47;;;18.37;98.50
23241;BME280;11789;53.482;9.862;2022-08-19T07:36:35;101328.94;;;18.37;98.54
23241;BME280;11789;53.482;9.862;2022-08-19T07:39:06;101329.03;;;18.34;98.60
23241;BME280;11789;53.482;9.862;2022-08-19T07:41:32;101332.47;;;18.36;98.52
23241;BME280;11789;53.482;9.862;2022-08-19T07:43:59;101332.44;;;18.38;98.37
23241;BME280;11789;53.482;9.862;2022-08-19T07:46:30;101340.31;;;18.36;98.09
23241;BME280;11789;53.482;9.862;2022-08-19T07:48:56;101337.72;;;18.36;98.03
23241;BME280;11789;53.482;9.862;2022-08-19T07:51:22;101346.38;;;18.38;97.87
23241;BME280;11789;53.482;9.862;2022-08-19T07:53:49;101338.56;;;18.37;97.72
23241;BME280;11789;53.482;9.862;2022-08-19T07:56:17;101348.09;;;18.39;97.64
23241;BME280;11789;53.482;9.862;2022-08-19T07:58:45;101348.06;;;18.41;97.58
23241;BME280;11789;53.482;9.862;2022-08-19T08:01:14;101350.69;;;18.39;97.46
23241;BME280;11789;53.482;9.862;2022-08-19T08:03:41;101352.41;;;18.42;97.17
23241;BME280;11789;53.482;9.862;2022-08-19T08:06:26;101361.91;;;18.45;97.00
23241;BME280;11789;53.482;9.862;2022-08-19T08:09:11;101361.84;;;18.48;96.89
23241;BME280;11789;53.482;9.862;2022-08-19T08:11:42;101368.91;;;18.46;96.86
23241;BME280;11789;53.482;9.862;2022-08-19T08:14:22;101369.03;;;18.39;96.62
23241;BME280;11789;53.482;9.862;2022-08-19T08:16:51;101375.22;;;18.37;96.44
23241;BME280;11789;53.482;9.862;2022-08-19T08:19:19;101372.59;;;18.37;96.44
23241;BME280;11789;53.482;9.862;2022-08-19T08:21:46;101371.75;;;18.36;96.54
23241;BME280;11789;53.482;9.862;2022-08-19T08:24:11;101375.16;;;18.38;96.63
23241;BME280;11789;53.482;9.862;2022-08-19T08:26:38;101368.91;;;18.44;96.41
23241;BME280;11789;53.482;9.862;2022-08-19T08:29:04;101375.06;;;18.43;96.20
23241;BME280;11789;53.482;9.862;2022-08-19T08:31:29;101372.44;;;18.43;96.15
23241;BME280;11789;53.482;9.862;2022-08-19T08:33:55;101378.56;;;18.42;96.37
23241;BME280;11789;53.482;9.862;2022-08-19T08:36:20;101386.37;;;18.44;96.42
23241;BME280;11789;53.482;9.862;2022-08-19T08:38:46;101382.78;;;18.48;96.47
23241;BME280;11789;53.482;9.862;2022-08-19T08:41:39;101381.88;;;18.49;96.62
23241;BME280;11789;53.482;9.862;2022-08-19T08:44:14;101373.88;;;18.55;96.51
23241;BME280;11789;53.482;9.862;2022-08-19T08:46:51;101371.19;;;18.58;96.20
23241;BME280;11789;53.482;9.862;2022-08-19T08:49:40;101379.03;;;18.58;96.26
23241;BME280;11789;53.482;9.862;2022-08-19T08:52:11;101378.19;;;18.57;96.66
23241;BME280;11789;53.482;9.862;2022-08-19T08:54:43;101378.19;;;18.57;96.80
23241;BME280;11789;53.482;9.862;2022-08-19T08:57:13;101373.88;;;18.55;96.66
23241;BME280;11789;53.482;9.862;2022-08-19T08:59:41;101380.00;;;18.55;96.81
23241;BME280;11789;53.482;9.862;2022-08-19T09:02:08;101382.47;;;18.60;96.84
23241;BME280;11789;53.482;9.862;2022-08-19T09:04:38;101371.97;;;18.61;96.67
23241;BME280;11789;53.482;9.862;2022-08-19T09:09:52;101380.56;;;18.68;96.64
23241;BME280;11789;53.482;9.862;2022-08-19T09:15:18;101382.09;;;18.75;96.50
23241;BME280;11789;53.482;9.862;2022-08-19T09:17:45;101388.19;;;18.77;96.42
23241;BME280;11789;53.482;9.862;2022-08-19T09:20:17;101387.31;;;18.77;96.40
23241;BME280;11789;53.482;9.862;2022-08-19T09:22:43;101399.44;;;18.81;96.34
23241;BME280;11789;53.482;9.862;2022-08-19T09:25:11;101392.47;;;18.80;96.51
23241;BME280;11789;53.482;9.862;2022-08-19T09:27:39;101387.97;;;18.85;96.44
23241;BME280;11789;53.482;9.862;2022-08-19T09:30:07;101379.13;;;18.89;96.14
23241;BME280;11789;53.482;9.862;2022-08-19T09:32:33;101384.28;;;18.92;96.14
23241;BME280;11789;53.482;9.862;2022-08-19T09:34:58;101368.56;;;18.92;96.18
23241;BME280;11789;53.482;9.862;2022-08-19T09:37:25;101381.69;;;18.92;96.16
23241;BME280;11789;53.482;9.862;2022-08-19T09:39:51;101384.12;;;18.98;95.95
23241;BME280;11789;53.482;9.862;2022-08-19T09:42:17;101383.38;;;18.93;96.18
23241;BME280;11789;53.482;9.862;2022-08-19T09:44:44;101372.91;;;18.93;96.35
23241;BME280;11789;53.482;9.862;2022-08-19T09:47:10;101379.97;;;18.91;96.34
23241;BME280;11789;53.482;9.862;2022-08-19T09:49:37;101376.37;;;18.93;96.30
23241;BME280;11789;53.482;9.862;2022-08-19T09:52:04;101378.94;;;18.95;96.19
23241;BME280;11789;53.482;9.862;2022-08-19T09:54:29;101372.78;;;18.98;96.20
23241;BME280;11789;53.482;9.862;2022-08-19T09:57:12;101385.03;;;18.96;96.50
23241;BME280;11789;53.482;9.862;2022-08-19T09:59:38;101386.00;;;18.93;96.98
23241;BME280;11789;53.482;9.862;2022-08-19T10:02:04;101384.25;;;18.93;97.37
23241;BME280;11789;53.482;9.862;2022-08-19T10:04:30;101381.50;;;18.98;97.37
23241;BME280;11789;53.482;9.862;2022-08-19T10:07:14;101380.72;;;18.95;97.65
23241;BME280;11789;53.482;9.862;2022-08-19T10:09:40;101380.72;;;18.95;97.75
23241;BME280;11789;53.482;9.862;2022-08-19T10:12:08;101380.75;;;18.93;97.91
23241;BME280;11789;53.482;9.862;2022-08-19T10:14:34;101384.19;;;18.95;97.96
23241;BME280;11789;53.482;9.862;2022-08-19T10:17:01;101392.03;;;18.97;98.25
23241;BME280;11789;53.482;9.862;2022-08-19T10:19:27;101385.94;;;18.96;98.72
23241;BME280;11789;53.482;9.862;2022-08-19T10:21:55;101379.91;;;18.92;98.91
23241;BME280;11789;53.482;9.862;2022-08-19T10:24:21;101381.63;;;18.93;99.31
23241;BME280;11789;53.482;9.862;2022-08-19T10:26:49;101382.47;;;18.94;99.41
23241;BME280;11789;53.482;9.862;2022-08-19T10:29:14;101392.97;;;18.94;99.24
23241;BME280;11789;53.482;9.862;2022-08-19T10:31:42;101384.31;;;18.90;99.46
23241;BME280;11789;53.482;9.862;2022-08-19T10:34:07;101387.03;;;18.87;99.74
23241;BME280;11789;53.482;9.862;2022-08-19T10:36:36;101387.03;;;18.87;100.00
23241;BME280;11789;53.482;9.862;2022-08-19T10:39:06;101392.19;;;18.90;100.00
23241;BME280;11789;53.482;9.862;2022-08-19T10:41:35;101394.00;;;18.88;100.00
23241;BME280;11789;53.482;9.862;2022-08-19T10:44:06;101394.94;;;18.86;100.00
23241;BME280;11789;53.482;9.862;2022-08-19T10:46:36;101387.09;;;18.84;100.00
23241;BME280;11789;53.482;9.862;2022-08-19T10:49:04;101387.09;;;18.84;100.00
23241;BME280;11789;53.482;9.862;2022-08-19T10:51:31;101385.31;;;18.86;100.00
23241;BME280;11789;53.482;9.862;2022-08-19T10:54:16;101380.03;;;18.88;100.00
23241;BME280;11789;53.482;9.862;2022-08-19T10:56:45;101386.00;;;18.93;100.00
23241;BME280;11789;53.482;9.862;2022-08-19T10:59:27;101384.28;;;18.92;100.00
23241;BME280;11789;53.482;9.862;2022-08-19T11:01:58;101380.97;;;18.85;100.00
23241;BME280;11789;53.482;9.862;2022-08-19T11:04:24;101378.44;;;18.82;100.00
23241;BME280;11789;53.482;9.862;2022-08-19T11:06:50;101377.59;;;18.82;100.00
23241;BME280;11789;53.482;9.862;2022-08-19T11:09:18;101378.34;;;18.85;100.00
23241;BME280;11789;53.482;9.862;2022-08-19T11:11:44;101384.19;;;18.95;100.00
23241;BME280;11789;53.482;9.862;2022-08-19T11:14:12;101383.09;;;19.04;100.00
23241;BME280;11789;53.482;9.862;2022-08-19T11:16:40;101381.94;;;19.14;100.00
23241;BME280;11789;53.482;9.862;2022-08-19T11:19:07;101372.19;;;19.19;100.00
23241;BME280;11789;53.482;9.862;2022-08-19T11:21:39;101375.66;;;19.19;100.00
23241;BME280;11789;53.482;9.862;2022-08-19T11:24:08;101380.03;;;19.19;100.00
23241;BME280;11789;53.482;9.862;2022-08-19T11:26:36;101384.31;;;19.23;100.00
23241;BME280;11789;53.482;9.862;2022-08-19T11:29:03;101389.28;;;19.32;99.90
23241;BME280;11789;53.482;9.862;2022-08-19T11:31:31;101372.41;;;19.41;99.43
23241;BME280;11789;53.482;9.862;2022-08-19T11:34:00;101373.91;;;19.50;98.90
23241;BME280;11789;53.482;9.862;2022-08-19T11:36:26;101372.84;;;19.57;98.53
23241;BME280;11789;53.482;9.862;2022-08-19T11:38:53;101367.59;;;19.57;98.29
23241;BME280;11789;53.482;9.862;2022-08-19T11:41:21;101368.53;;;19.54;98.18
23241;BME280;11789;53.482;9.862;2022-08-19T11:43:48;101363.38;;;19.51;98.19
23241;BME280;11789;53.482;9.862;2022-08-19T11:46:15;101370.44;;;19.49;98.18
23241;BME280;11789;53.482;9.862;2022-08-19T11:48:40;101365.19;;;19.49;97.81
23241;BME280;11789;53.482;9.862;2022-08-19T11:51:09;101360.72;;;19.53;97.75
23241;BME280;11789;53.482;9.862;2022-08-19T11:53:37;101367.59;;;19.57;97.67
23241;BME280;11789;53.482;9.862;2022-08-19T11:56:04;101365.75;;;19.60;97.51
23241;BME280;11789;53.482;9.862;2022-08-19T11:58:29;101350.72;;;19.67;97.38
23241;BME280;11789;53.482;9.862;2022-08-19T12:00:55;101360.16;;;19.71;97.24
23241;BME280;11789;53.482;9.862;2022-08-19T12:03:20;101360.03;;;19.76;96.94
23241;BME280;11789;53.482;9.862;2022-08-19T12:05:46;101359.19;;;19.75;96.25
23241;BME280;11789;53.482;9.862;2022-08-19T12:08:12;101355.63;;;19.76;95.48
23241;BME280;11789;53.482;9.862;2022-08-19T12:10:39;101362.16;;;19.92;95.45
23241;BME280;11789;53.482;9.862;2022-08-19T12:13:29;101359.88;;;20.08;94.50
23241;BME280;11789;53.482;9.862;2022-08-19T12:15:55;101363.16;;;20.15;93.54
23241;BME280;11789;53.482;9.862;2022-08-19T12:18:20;101360.19;;;20.26;93.79
23241;BME280;11789;53.482;9.862;2022-08-19T12:20:46;101352.94;;;20.32;93.47
23241;BME280;11789;53.482;9.862;2022-08-19T12:23:20;101343.81;;;20.44;93.46
23241;BME280;11789;53.482;9.862;2022-08-19T12:25:47;101345.25;;;20.54;92.42
23241;BME280;11789;53.482;9.862;2022-08-19T12:28:21;101349.44;;;20.60;91.68
23241;BME280;11789;53.482;9.862;2022-08-19T12:30:48;101353.53;;;20.68;91.23
23241;BME280;11789;53.482;9.862;2022-08-19T12:33:16;101346.16;;;20.78;90.57
23241;BME280;11789;53.482;9.862;2022-08-19T12:35:43;101348.75;;;20.80;89.06
23241;BME280;11789;53.482;9.862;2022-08-19T12:38:10;101341.56;;;20.85;89.19
23241;BME280;11789;53.482;9.862;2022-08-19T12:40:36;101339.72;;;20.87;89.50
23241;BME280;11789;53.482;9.862;2022-08-19T12:43:02;101329.09;;;20.90;89.96
23241;BME280;11789;53.482;9.862;2022-08-19T12:45:28;101328.28;;;20.88;89.88
23241;BME280;11789;53.482;9.862;2022-08-19T12:47:54;101333.66;;;20.85;89.57
23241;BME280;11789;53.482;9.862;2022-08-19T12:50:19;101337.16;;;20.85;89.51
23241;BME280;11789;53.482;9.862;2022-08-19T12:52:46;101327.25;;;20.92;89.64
23241;BME280;11789;53.482;9.862;2022-08-19T12:55:12;101343.03;;;20.92;89.49
23241;BME280;11789;53.482;9.862;2022-08-19T12:57:37;101339.47;;;20.93;88.95
23241;BME280;11789;53.482;9.862;2022-08-19T13:00:07;101342.19;;;20.91;88.74